createdAt,value
2022-09-28T00:01:14.089Z,10.87
2022-09-28T00:03:42.256Z,10.90
2022-09-28T00:06:12.767Z,11.04
2022-09-28T00:08:40.465Z,10.91
2022-09-28T00:11:11.972Z,10.73
2022-09-28T00:13:42.088Z,10.38
2022-09-28T00:16:17.983Z,10.45
2022-09-28T00:18:46.179Z,10.56
2022-09-28T00:21:16.931Z,10.56
2022-09-28T00:23:45.333Z,10.64
2022-09-28T00:26:12.966Z,10.59
2022-09-28T00:28:41.409Z,10.58
2022-09-28T00:31:09.082Z,10.53
2022-09-28T00:33:36.737Z,10.37
2022-09-28T00:36:04.712Z,10.48
2022-09-28T00:38:32.458Z,10.41
2022-09-28T00:41:00.164Z,10.49
2022-09-28T00:43:28.117Z,10.43
2022-09-28T00:46:02.330Z,10.29
2022-09-28T00:48:34.375Z,10.25
2022-09-28T00:51:05.614Z,10.24
2022-09-28T00:53:35.157Z,10.29
2022-09-28T00:56:07.129Z,10.33
2022-09-28T00:58:38.397Z,10.51
2022-09-28T01:01:06.201Z,10.27
2022-09-28T01:03:34.278Z,10.42
2022-09-28T01:06:04.104Z,10.60
2022-09-28T01:08:33.645Z,10.66
2022-09-28T01:11:01.678Z,10.39
2022-09-28T01:13:30.849Z,10.46
2022-09-28T01:16:13.181Z,10.65
2022-09-28T01:19:21.906Z,10.64
2022-09-28T01:22:07.576Z,10.47
2022-09-28T01:24:43.504Z,10.34
2022-09-28T01:27:15.626Z,10.54
2022-09-28T01:30:00.890Z,10.50
2022-09-28T01:32:51.179Z,10.50
2022-09-28T01:35:47.909Z,10.43
2022-09-28T01:38:25.343Z,10.60
2022-09-28T01:40:53.967Z,10.73
2022-09-28T01:43:25.307Z,10.72
2022-09-28T01:45:56.716Z,10.62
2022-09-28T01:48:29.430Z,10.74
2022-09-28T01:50:59.927Z,10.61
2022-09-28T01:53:40.261Z,10.57
2022-09-28T01:56:14.571Z,10.72
2022-09-28T01:58:59.712Z,10.67
2022-09-28T02:01:31.301Z,10.69
2022-09-28T02:04:03.827Z,10.73
2022-09-28T02:06:37.593Z,10.77
2022-09-28T02:09:11.757Z,10.80
2022-09-28T02:11:45.221Z,10.59
2022-09-28T02:14:16.115Z,10.59
2022-09-28T02:16:46.549Z,10.63
2022-09-28T02:19:19.825Z,10.55
2022-09-28T02:22:08.795Z,10.50
2022-09-28T02:24:47.034Z,10.53
2022-09-28T02:27:31.999Z,10.59
2022-09-28T02:30:00.488Z,10.49
2022-09-28T02:32:28.946Z,10.56
2022-09-28T02:34:56.976Z,10.61
2022-09-28T02:37:27.077Z,10.55
2022-09-28T02:39:54.624Z,10.67
2022-09-28T02:42:57.397Z,10.80
2022-09-28T02:45:54.507Z,10.85
2022-09-28T02:48:49.167Z,10.80
2022-09-28T02:51:41.010Z,10.68
2022-09-28T02:54:13.450Z,10.92
2022-09-28T02:57:13.159Z,10.79
2022-09-28T02:59:43.629Z,10.82
2022-09-28T03:02:23.005Z,10.93
2022-09-28T03:05:03.552Z,10.92
2022-09-28T03:08:00.903Z,10.73
2022-09-28T03:10:38.402Z,10.90
2022-09-28T03:13:06.952Z,10.81
2022-09-28T03:15:36.330Z,10.91
2022-09-28T03:18:04.470Z,10.81
2022-09-28T03:20:33.031Z,10.85
2022-09-28T03:23:23.363Z,10.85
2022-09-28T03:25:48.840Z,10.95
2022-09-28T03:28:16.494Z,10.75
2022-09-28T03:30:44.150Z,10.81
2022-09-28T03:33:12.322Z,10.74
2022-09-28T03:35:39.997Z,10.66
2022-09-28T03:38:07.760Z,10.74
2022-09-28T03:40:37.953Z,10.75
2022-09-28T03:43:05.537Z,10.70
2022-09-28T03:45:33.684Z,10.91
2022-09-28T03:48:01.918Z,10.79
2022-09-28T03:50:29.613Z,10.60
2022-09-28T03:53:02.168Z,10.76
2022-09-28T03:55:30.118Z,10.76
2022-09-28T03:57:57.737Z,10.86
2022-09-28T04:00:25.392Z,10.66
2022-09-28T04:02:53.771Z,10.65
2022-09-28T04:05:21.362Z,10.85
2022-09-28T04:07:49.067Z,10.77
2022-09-28T04:10:17.299Z,10.76
2022-09-28T04:12:44.999Z,10.91
2022-09-28T04:15:12.976Z,10.72
2022-09-28T04:17:42.939Z,10.63
2022-09-28T04:20:12.065Z,10.72
2022-09-28T04:22:40.102Z,10.67
2022-09-28T04:25:08.677Z,10.62
2022-09-28T04:27:36.814Z,10.42
2022-09-28T04:30:05.593Z,10.51
2022-09-28T04:32:34.276Z,10.53
2022-09-28T04:35:02.213Z,10.48
2022-09-28T04:37:30.051Z,10.48
2022-09-28T04:39:58.009Z,10.34
2022-09-28T04:42:25.684Z,10.47
2022-09-28T04:44:53.390Z,10.29
2022-09-28T04:47:21.254Z,10.38
2022-09-28T04:49:49.557Z,10.32
2022-09-28T04:52:18.506Z,10.43
2022-09-28T04:54:48.319Z,10.30
2022-09-28T04:57:17.055Z,10.33
2022-09-28T04:59:44.956Z,10.53
2022-09-28T05:02:13.277Z,10.35
2022-09-28T05:04:41.957Z,10.55
2022-09-28T05:07:10.689Z,10.50
2022-09-28T05:09:39.273Z,10.66
2022-09-28T05:12:08.697Z,10.65
2022-09-28T05:14:36.372Z,10.38
2022-09-28T05:17:04.879Z,10.43
2022-09-28T05:19:33.951Z,10.55
2022-09-28T05:22:02.812Z,10.64
2022-09-28T05:24:31.541Z,10.47
2022-09-28T05:26:59.911Z,10.58
2022-09-28T05:29:31.918Z,10.46
2022-09-28T05:32:03.496Z,10.51
2022-09-28T05:34:31.684Z,10.51
2022-09-28T05:37:05.776Z,10.48
2022-09-28T05:39:33.691Z,10.49
2022-09-28T05:42:02.076Z,10.43
2022-09-28T05:44:30.176Z,10.25
2022-09-28T05:46:58.062Z,10.55
2022-09-28T05:49:25.954Z,10.57
2022-09-28T05:51:53.683Z,10.37
2022-09-28T05:54:21.707Z,10.38
2022-09-28T05:56:51.879Z,10.40
2022-09-28T05:59:19.473Z,10.37
2022-09-28T06:01:47.505Z,10.54
2022-09-28T06:04:16.030Z,10.56
2022-09-28T06:06:44.021Z,10.57
2022-09-28T06:09:11.665Z,10.61
2022-09-28T06:11:40.221Z,10.74
2022-09-28T06:14:09.119Z,10.72
2022-09-28T06:16:41.635Z,10.94
2022-09-28T06:19:12.243Z,10.93
2022-09-28T06:21:39.931Z,10.99
2022-09-28T06:24:08.009Z,11.00
2022-09-28T06:26:36.708Z,11.11
2022-09-28T06:29:05.298Z,11.39
2022-09-28T06:31:32.863Z,11.32
2022-09-28T06:34:00.961Z,11.39
2022-09-28T06:36:29.530Z,11.59
2022-09-28T06:38:57.438Z,11.60
2022-09-28T06:41:25.475Z,11.62
2022-09-28T06:43:53.085Z,11.65
2022-09-28T06:46:22.524Z,11.73
2022-09-28T06:48:52.114Z,11.74
2022-09-28T06:51:20.196Z,11.95
2022-09-28T06:53:49.161Z,12.02
2022-09-28T06:56:18.151Z,11.88
2022-09-28T06:58:45.928Z,11.84
2022-09-28T07:01:13.860Z,11.95
2022-09-28T07:03:42.143Z,12.09
2022-09-28T07:06:11.713Z,11.78
2022-09-28T07:08:40.974Z,12.21
2022-09-28T07:11:09.101Z,12.29
2022-09-28T07:13:49.606Z,12.35
2022-09-28T07:16:21.658Z,12.36
2022-09-28T07:18:53.614Z,12.52
2022-09-28T07:21:29.201Z,12.45
2022-09-28T07:23:59.716Z,12.64
2022-09-28T07:26:29.868Z,12.83
2022-09-28T07:28:57.636Z,13.05
2022-09-28T07:31:26.100Z,12.99
2022-09-28T07:33:54.160Z,12.86
2022-09-28T07:36:22.143Z,13.18
2022-09-28T07:38:51.032Z,13.35
2022-09-28T07:41:19.122Z,13.21
2022-09-28T07:43:47.055Z,13.06
2022-09-28T07:46:14.809Z,13.09
2022-09-28T07:48:43.846Z,13.12
2022-09-28T07:51:12.030Z,13.58
2022-09-28T07:53:39.730Z,13.45
2022-09-28T07:56:09.058Z,13.59
2022-09-28T07:58:38.756Z,13.70
2022-09-28T08:01:09.541Z,13.75
2022-09-28T08:03:38.537Z,14.02
2022-09-28T08:06:07.339Z,13.91
2022-09-28T08:08:35.107Z,13.94
2022-09-28T08:11:03.303Z,13.58
2022-09-28T08:13:31.583Z,13.60
2022-09-28T08:16:02.820Z,13.96
2022-09-28T08:18:31.962Z,14.04
2022-09-28T08:20:59.577Z,13.81
2022-09-28T08:23:27.401Z,14.36
2022-09-28T08:25:55.755Z,14.39
2022-09-28T08:28:24.581Z,14.44
2022-09-28T08:30:52.661Z,14.95
2022-09-28T08:33:21.657Z,14.70
2022-09-28T08:36:14.317Z,15.07
2022-09-28T08:38:43.715Z,15.14
2022-09-28T08:41:59.936Z,15.43
2022-09-28T08:44:44.539Z,15.28
2022-09-28T08:47:18.391Z,15.39
2022-09-28T08:49:47.608Z,15.51
2022-09-28T08:52:21.131Z,15.05
2022-09-28T08:55:03.914Z,14.96
2022-09-28T08:57:41.607Z,15.24
2022-09-28T09:00:16.575Z,15.91
2022-09-28T09:02:44.416Z,15.97
2022-09-28T09:05:17.138Z,15.98
2022-09-28T09:08:06.800Z,15.87
2022-09-28T09:10:52.701Z,16.13
2022-09-28T09:14:05.040Z,15.66
2022-09-28T09:16:43.716Z,15.56
2022-09-28T09:19:17.478Z,16.10
2022-09-28T09:21:58.256Z,16.04
2022-09-28T09:24:37.002Z,16.31
2022-09-28T09:27:06.187Z,16.67
2022-09-28T09:29:57.207Z,16.48
2022-09-28T09:32:50.190Z,16.25
2022-09-28T09:35:33.972Z,16.18
2022-09-28T09:38:18.388Z,16.73
2022-09-28T09:40:49.031Z,16.52
2022-09-28T09:43:56.611Z,16.36
2022-09-28T09:46:28.120Z,16.52
2022-09-28T09:49:13.977Z,16.68
2022-09-28T09:52:11.491Z,16.96
2022-09-28T09:54:43.255Z,17.08
2022-09-28T09:57:25.284Z,17.12
2022-09-28T09:59:55.016Z,17.26
2022-09-28T10:02:29.152Z,17.37
2022-09-28T10:05:18.659Z,17.30
2022-09-28T10:07:58.906Z,16.67
2022-09-28T10:10:38.159Z,16.92
2022-09-28T10:13:05.847Z,16.94
2022-09-28T10:15:34.965Z,16.71
2022-09-28T10:18:11.044Z,17.04
2022-09-28T10:20:44.089Z,16.49
2022-09-28T10:23:23.052Z,16.52
2022-09-28T10:26:04.114Z,16.40
2022-09-28T10:28:41.042Z,16.83
2022-09-28T10:31:38.334Z,16.64
2022-09-28T10:34:07.877Z,16.83
2022-09-28T10:36:52.701Z,16.91
2022-09-28T10:39:36.789Z,17.38
2022-09-28T10:42:10.138Z,17.30
2022-09-28T10:45:01.144Z,17.14
2022-09-28T10:47:30.978Z,16.71
2022-09-28T10:49:59.589Z,16.72
2022-09-28T10:52:39.433Z,16.52
2022-09-28T10:55:21.154Z,16.65
2022-09-28T10:57:48.900Z,16.61
2022-09-28T11:00:44.578Z,16.74
2022-09-28T11:03:30.839Z,16.94
2022-09-28T11:06:07.037Z,17.27
2022-09-28T11:08:37.778Z,17.07
2022-09-28T11:11:07.648Z,17.07
2022-09-28T11:13:59.448Z,17.86
2022-09-28T11:16:32.969Z,17.94
2022-09-28T11:19:23.663Z,18.02
2022-09-28T11:21:52.196Z,18.37
2022-09-28T11:24:23.916Z,18.50
2022-09-28T11:26:55.283Z,18.39
2022-09-28T11:29:30.358Z,18.22
2022-09-28T11:32:00.678Z,18.29
2022-09-28T11:34:57.472Z,18.05
2022-09-28T11:37:51.957Z,18.24
2022-09-28T11:40:23.997Z,18.38
2022-09-28T11:42:51.912Z,18.51
2022-09-28T11:45:46.461Z,18.44
2022-09-28T11:48:25.951Z,18.29
2022-09-28T11:50:58.574Z,18.58
2022-09-28T11:54:08.790Z,18.79
2022-09-28T11:56:40.148Z,18.40
2022-09-28T11:59:11.962Z,18.55
2022-09-28T12:01:52.768Z,18.17
2022-09-28T12:04:21.030Z,18.49
2022-09-28T12:06:57.826Z,18.81
2022-09-28T12:09:41.945Z,18.46
2022-09-28T12:12:22.047Z,18.66
2022-09-28T12:14:54.391Z,18.87
2022-09-28T12:17:29.630Z,19.16
2022-09-28T12:20:14.622Z,19.04
2022-09-28T12:22:49.661Z,18.79
2022-09-28T12:25:21.243Z,18.68
2022-09-28T12:27:57.054Z,18.98
2022-09-28T12:30:25.465Z,19.32
2022-09-28T12:33:05.572Z,19.11
2022-09-28T12:35:58.348Z,19.08
2022-09-28T12:39:17.720Z,18.63
2022-09-28T12:41:53.634Z,18.93
2022-09-28T12:44:43.127Z,18.83
2022-09-28T12:47:46.975Z,19.24
2022-09-28T12:50:52.763Z,19.03
2022-09-28T12:53:33.384Z,18.94
2022-09-28T12:56:03.896Z,18.72
2022-09-28T12:58:36.301Z,18.68
2022-09-28T13:01:21.008Z,18.87
2022-09-28T13:04:01.213Z,18.85
2022-09-28T13:06:34.844Z,18.54
2022-09-28T13:09:02.880Z,18.80
2022-09-28T13:11:35.147Z,18.37
2022-09-28T13:14:09.048Z,19.01
2022-09-28T13:16:59.744Z,18.83
2022-09-28T13:19:47.027Z,18.43
2022-09-28T13:22:44.077Z,18.53
2022-09-28T13:25:20.748Z,18.70
2022-09-28T13:27:58.637Z,18.70
2022-09-28T13:30:27.216Z,18.54
2022-09-28T13:32:59.604Z,18.73
2022-09-28T13:35:27.710Z,18.75
2022-09-28T13:38:27.894Z,18.76
2022-09-28T13:41:04.629Z,18.70
2022-09-28T13:43:45.508Z,19.21
2022-09-28T13:46:27.490Z,18.44
2022-09-28T13:49:19.275Z,18.17
2022-09-28T13:52:13.069Z,17.99
2022-09-28T13:55:17.079Z,17.65
2022-09-28T13:57:48.211Z,17.67
2022-09-28T14:00:23.289Z,17.58
2022-09-28T14:03:03.269Z,17.43
2022-09-28T14:06:03.064Z,17.50
2022-09-28T14:08:39.635Z,17.72
2022-09-28T14:11:36.453Z,17.65
2022-09-28T14:14:07.263Z,18.05
2022-09-28T14:16:35.859Z,17.94
2022-09-28T14:19:09.499Z,17.67
2022-09-28T14:21:55.721Z,17.94
2022-09-28T14:24:29.206Z,17.63
2022-09-28T14:26:59.756Z,17.84
2022-09-28T14:29:29.631Z,17.95
2022-09-28T14:32:24.172Z,17.78
2022-09-28T14:35:02.377Z,17.70
2022-09-28T14:37:33.089Z,18.06
2022-09-28T14:40:01.464Z,18.06
2022-09-28T14:42:29.088Z,17.89
2022-09-28T14:45:06.323Z,18.00
2022-09-28T14:47:41.334Z,17.72
2022-09-28T14:50:26.805Z,17.74
2022-09-28T14:52:55.425Z,17.61
2022-09-28T14:55:31.389Z,17.15
2022-09-28T14:57:59.398Z,17.13
2022-09-28T15:00:29.033Z,17.07
2022-09-28T15:03:01.079Z,17.20
2022-09-28T15:05:55.350Z,16.88
2022-09-28T15:08:22.914Z,17.10
2022-09-28T15:10:51.281Z,17.29
2022-09-28T15:13:22.558Z,17.36
2022-09-28T15:15:56.986Z,17.62
2022-09-28T15:18:37.868Z,17.25
2022-09-28T15:21:05.499Z,16.97
2022-09-28T15:23:35.924Z,17.17
2022-09-28T15:26:05.674Z,17.15
2022-09-28T15:28:35.411Z,17.02
2022-09-28T15:31:05.079Z,16.90
2022-09-28T15:33:34.665Z,16.71
2022-09-28T15:36:05.649Z,17.06
2022-09-28T15:38:34.965Z,16.93
2022-09-28T15:41:03.759Z,16.75
2022-09-28T15:43:33.470Z,16.82
2022-09-28T15:46:14.161Z,16.60
2022-09-28T15:48:54.076Z,16.61
2022-09-28T15:51:23.781Z,16.49
2022-09-28T15:54:00.749Z,16.43
2022-09-28T15:56:31.810Z,16.46
2022-09-28T15:59:18.912Z,16.47
2022-09-28T16:01:47.766Z,16.42
2022-09-28T16:04:37.673Z,16.44
2022-09-28T16:07:11.100Z,16.15
2022-09-28T16:10:13.170Z,15.97
2022-09-28T16:12:42.417Z,16.08
2022-09-28T16:15:14.814Z,16.09
2022-09-28T16:17:42.436Z,16.04
2022-09-28T16:20:27.194Z,16.00
2022-09-28T16:22:56.945Z,15.92
2022-09-28T16:25:26.608Z,15.77
2022-09-28T16:27:54.987Z,15.73
2022-09-28T16:30:24.936Z,15.78
2022-09-28T16:33:29.263Z,15.67
2022-09-28T16:36:02.207Z,15.68
2022-09-28T16:38:30.209Z,15.56
2022-09-28T16:41:00.658Z,15.57
2022-09-28T16:43:28.258Z,15.58
2022-09-28T16:45:58.664Z,15.55
2022-09-28T16:48:30.913Z,15.53
2022-09-28T16:50:59.130Z,15.52
2022-09-28T16:53:27.189Z,15.39
2022-09-28T16:55:54.819Z,15.50
2022-09-28T16:58:24.925Z,15.43
2022-09-28T17:00:52.589Z,15.34
2022-09-28T17:03:20.983Z,15.32
2022-09-28T17:05:49.746Z,15.27
2022-09-28T17:08:19.659Z,15.33
2022-09-28T17:11:13.981Z,15.23
2022-09-28T17:13:44.150Z,15.29
2022-09-28T17:16:16.991Z,15.23
2022-09-28T17:18:45.574Z,15.14
2022-09-28T17:21:19.064Z,15.19
2022-09-28T17:23:48.592Z,15.21
2022-09-28T17:26:19.526Z,15.10
2022-09-28T17:28:47.528Z,15.12
2022-09-28T17:31:16.368Z,15.12
2022-09-28T17:33:44.989Z,15.05
2022-09-28T17:36:14.849Z,15.06
2022-09-28T17:38:42.746Z,15.11
2022-09-28T17:41:20.241Z,15.08
2022-09-28T17:43:49.094Z,15.09
2022-09-28T17:46:27.705Z,15.13
2022-09-28T17:48:57.836Z,15.10
2022-09-28T17:51:30.579Z,15.03
2022-09-28T17:53:59.024Z,15.08
2022-09-28T17:56:31.900Z,15.00
2022-09-28T17:59:03.309Z,15.11
2022-09-28T18:01:31.855Z,14.99
2022-09-28T18:04:01.139Z,15.00
2022-09-28T18:06:28.992Z,14.93
2022-09-28T18:08:56.726Z,14.88
2022-09-28T18:11:24.740Z,14.82
2022-09-28T18:13:52.421Z,14.74
2022-09-28T18:16:20.381Z,14.70
2022-09-28T18:18:48.713Z,14.65
2022-09-28T18:21:16.331Z,14.65
2022-09-28T18:23:43.984Z,14.57
2022-09-28T18:26:13.202Z,14.52
2022-09-28T18:28:41.473Z,14.47
2022-09-28T18:31:13.791Z,14.48
2022-09-28T18:33:51.154Z,14.43
2022-09-28T18:36:18.904Z,14.33
2022-09-28T18:38:47.053Z,14.27
2022-09-28T18:41:15.201Z,14.21
2022-09-28T18:43:50.009Z,14.14
2022-09-28T18:46:18.680Z,14.11
2022-09-28T18:48:46.468Z,14.13
2022-09-28T18:51:17.171Z,14.13
2022-09-28T18:53:44.922Z,14.13
2022-09-28T18:56:16.251Z,14.08
2022-09-28T18:58:45.272Z,14.09
2022-09-28T19:01:31.891Z,13.99
2022-09-28T19:04:03.122Z,13.89
2022-09-28T19:06:32.478Z,13.86
2022-09-28T19:09:03.936Z,13.68
2022-09-28T19:11:33.603Z,13.77
2022-09-28T19:14:06.770Z,13.74
2022-09-28T19:16:34.731Z,13.68
2022-09-28T19:19:02.627Z,13.61
2022-09-28T19:21:33.109Z,13.78
2022-09-28T19:24:02.545Z,13.82
2022-09-28T19:26:34.179Z,13.79
2022-09-28T19:29:02.434Z,13.67
2022-09-28T19:31:30.491Z,13.63
2022-09-28T19:33:58.663Z,13.57
2022-09-28T19:36:27.068Z,13.63
2022-09-28T19:38:56.407Z,13.49
2022-09-28T19:41:26.480Z,13.47
2022-09-28T19:43:54.356Z,13.59
2022-09-28T19:46:22.118Z,13.60
2022-09-28T19:48:49.772Z,13.41
2022-09-28T19:51:17.638Z,13.52
2022-09-28T19:53:45.351Z,13.49
2022-09-28T19:56:12.972Z,13.48
2022-09-28T19:58:41.321Z,13.52
2022-09-28T20:01:09.041Z,13.35
2022-09-28T20:03:36.953Z,13.36
2022-09-28T20:06:05.230Z,13.35
2022-09-28T20:08:32.775Z,13.30
2022-09-28T20:11:00.796Z,13.40
2022-09-28T20:13:34.050Z,13.32
2022-09-28T20:16:06.613Z,13.33
2022-09-28T20:18:35.443Z,13.47
2022-09-28T20:21:05.982Z,13.44
2022-09-28T20:23:33.839Z,13.43
2022-09-28T20:26:02.154Z,13.42
2022-09-28T20:28:30.491Z,13.27
2022-09-28T20:31:16.334Z,13.33
2022-09-28T20:33:44.576Z,13.29
2022-09-28T20:36:20.508Z,13.17
2022-09-28T20:38:58.468Z,13.16
2022-09-28T20:41:26.080Z,13.22
2022-09-28T20:43:55.775Z,13.14
2022-09-28T20:46:23.645Z,13.31
2022-09-28T20:48:51.775Z,13.19
2022-09-28T20:51:20.014Z,13.30
2022-09-28T20:53:50.575Z,13.28
2022-09-28T20:56:23.101Z,13.24
2022-09-28T20:58:51.373Z,13.27
2022-09-28T21:01:24.000Z,13.29
2022-09-28T21:03:54.289Z,13.30
2022-09-28T21:06:24.320Z,13.28
2022-09-28T21:08:52.318Z,13.45
2022-09-28T21:11:22.096Z,13.38
2022-09-28T21:13:54.862Z,13.40
2022-09-28T21:16:22.751Z,13.27
2022-09-28T21:18:50.672Z,13.24
2022-09-28T21:21:19.938Z,13.21
2022-09-28T21:23:48.262Z,13.19
2022-09-28T21:26:21.370Z,13.31
2022-09-28T21:28:51.704Z,13.33
2022-09-28T21:31:19.369Z,13.29
2022-09-28T21:33:47.143Z,13.35
2022-09-28T21:36:15.097Z,13.28
2022-09-28T21:38:42.899Z,13.21
2022-09-28T21:41:10.525Z,13.21
2022-09-28T21:43:39.176Z,13.28
2022-09-28T21:46:06.852Z,13.25
2022-09-28T21:48:34.461Z,13.26
2022-09-28T21:51:05.314Z,13.27
2022-09-28T21:53:35.301Z,13.23
2022-09-28T21:56:06.179Z,13.34
2022-09-28T21:58:34.643Z,13.31
2022-09-28T22:01:06.079Z,13.31
2022-09-28T22:03:35.326Z,13.40
2022-09-28T22:06:04.875Z,13.36
2022-09-28T22:08:32.982Z,13.45
2022-09-28T22:11:02.728Z,13.48
2022-09-28T22:13:32.698Z,13.38
2022-09-28T22:16:00.795Z,13.43
2022-09-28T22:18:30.389Z,13.48
2022-09-28T22:21:01.616Z,13.43
2022-09-28T22:23:30.264Z,13.37
2022-09-28T22:26:05.717Z,13.50
2022-09-28T22:28:34.375Z,13.46
2022-09-28T22:31:02.611Z,13.48
2022-09-28T22:33:30.270Z,13.41
2022-09-28T22:35:58.217Z,13.49
2022-09-28T22:38:25.727Z,13.50
2022-09-28T22:40:55.424Z,13.41
2022-09-28T22:43:24.147Z,13.46
2022-09-28T22:46:06.063Z,13.43
2022-09-28T22:48:34.423Z,13.47
2022-09-28T22:51:03.222Z,13.51
2022-09-28T22:53:30.842Z,13.43
2022-09-28T22:55:59.874Z,13.56
2022-09-28T22:58:27.820Z,13.45
2022-09-28T23:00:55.396Z,13.38
2022-09-28T23:03:23.628Z,13.39
2022-09-28T23:05:52.788Z,13.42
2022-09-28T23:08:20.885Z,13.54
2022-09-28T23:10:48.963Z,13.53
2022-09-28T23:13:16.698Z,13.52
2022-09-28T23:15:44.467Z,13.40
2022-09-28T23:18:12.454Z,13.31
2022-09-28T23:20:40.042Z,13.31
2022-09-28T23:23:07.562Z,13.35
2022-09-28T23:25:35.482Z,13.24
2022-09-28T23:28:03.161Z,13.24
2022-09-28T23:30:30.777Z,13.34
2022-09-28T23:32:58.639Z,13.18
2022-09-28T23:35:26.178Z,13.29
2022-09-28T23:37:53.841Z,13.34
2022-09-28T23:40:21.889Z,13.28
2022-09-28T23:42:49.515Z,13.25
2022-09-28T23:45:17.097Z,13.19
2022-09-28T23:47:45.216Z,13.25
2022-09-28T23:50:13.081Z,13.25
2022-09-28T23:52:40.619Z,13.36
2022-09-28T23:55:08.713Z,13.22
2022-09-28T23:57:36.472Z,13.25
